createdAt,value
2018-12-18T00:00:23.872Z,5.30
2018-12-18T00:02:51.775Z,5.30
2018-12-18T00:05:25.805Z,5.30
2018-12-18T00:07:53.678Z,5.40
2018-12-18T00:10:21.544Z,5.40
2018-12-18T00:12:49.391Z,5.40
2018-12-18T00:15:17.329Z,5.40
2018-12-18T00:17:45.155Z,5.40
2018-12-18T00:20:13.056Z,5.40
2018-12-18T00:22:40.863Z,5.40
2018-12-18T00:25:08.838Z,5.40
2018-12-18T00:27:36.675Z,5.30
2018-12-18T00:30:05.341Z,5.30
2018-12-18T00:32:33.303Z,5.20
2018-12-18T00:35:01.320Z,5.20
2018-12-18T00:37:29.219Z,5.10
2018-12-18T00:39:57.063Z,5.10
2018-12-18T00:42:24.914Z,5.10
2018-12-18T00:44:52.779Z,5.00
2018-12-18T00:47:20.663Z,5.00
2018-12-18T00:49:48.531Z,5.00
2018-12-18T00:52:16.345Z,5.00
2018-12-18T00:54:44.167Z,5.00
2018-12-18T00:57:11.967Z,5.10
2018-12-18T00:59:39.816Z,5.10
2018-12-18T01:02:07.674Z,5.10
2018-12-18T01:04:35.656Z,5.20
2018-12-18T01:07:03.546Z,5.20
2018-12-18T01:09:31.557Z,5.30
2018-12-18T01:11:59.563Z,5.30
2018-12-18T01:14:27.413Z,5.30
2018-12-18T01:16:55.295Z,5.20
2018-12-18T01:19:23.103Z,5.20
2018-12-18T01:21:51.111Z,5.10
2018-12-18T01:24:18.979Z,5.00
2018-12-18T01:26:46.920Z,5.00
2018-12-18T01:29:14.744Z,4.90
2018-12-18T01:31:42.544Z,4.80
2018-12-18T01:34:10.404Z,4.80
2018-12-18T01:36:38.183Z,4.80
2018-12-18T01:39:06.547Z,4.80
2018-12-18T01:41:34.610Z,4.90
2018-12-18T01:44:02.494Z,4.90
2018-12-18T01:46:30.407Z,4.90
2018-12-18T01:48:58.256Z,4.50
2018-12-18T01:51:26.111Z,5.00
2018-12-18T01:53:53.964Z,5.00
2018-12-18T01:56:21.828Z,5.00
2018-12-18T01:58:49.700Z,5.00
2018-12-18T02:01:17.665Z,5.10
2018-12-18T02:03:45.554Z,5.10
2018-12-18T02:06:13.464Z,5.10
2018-12-18T02:08:41.348Z,5.20
2018-12-18T02:11:09.242Z,5.20
2018-12-18T02:13:37.177Z,5.20
2018-12-18T02:16:05.093Z,5.30
2018-12-18T02:18:33.002Z,5.30
2018-12-18T02:21:00.945Z,5.10
2018-12-18T02:23:28.848Z,5.30
2018-12-18T02:25:56.713Z,5.40
2018-12-18T02:28:24.594Z,5.40
2018-12-18T02:30:52.483Z,5.40
2018-12-18T02:33:20.388Z,5.40
2018-12-18T02:35:48.220Z,5.40
2018-12-18T02:38:26.160Z,5.40
2018-12-18T02:40:54.045Z,5.50
2018-12-18T02:43:21.995Z,5.50
2018-12-18T02:45:49.862Z,5.50
2018-12-18T02:48:17.876Z,5.50
2018-12-18T02:50:45.772Z,5.50
2018-12-18T02:53:13.603Z,5.50
2018-12-18T02:55:41.492Z,5.60
2018-12-18T02:58:09.373Z,5.60
2018-12-18T03:00:37.261Z,5.60
2018-12-18T03:03:05.272Z,5.60
2018-12-18T03:05:33.867Z,5.60
2018-12-18T03:08:01.796Z,5.60
2018-12-18T03:10:29.674Z,5.60
2018-12-18T03:12:57.583Z,5.60
2018-12-18T03:15:25.428Z,5.60
2018-12-18T03:17:53.335Z,5.60
2018-12-18T03:20:21.249Z,5.60
2018-12-18T03:22:49.174Z,5.60
2018-12-18T03:25:17.053Z,5.60
2018-12-18T03:27:44.932Z,5.60
2018-12-18T03:30:12.834Z,5.60
2018-12-18T03:32:46.132Z,5.60
2018-12-18T03:35:14.036Z,5.50
2018-12-18T03:37:41.944Z,5.60
2018-12-18T03:40:09.946Z,5.60
2018-12-18T03:42:37.797Z,5.50
2018-12-18T03:45:06.376Z,5.50
2018-12-18T03:47:34.278Z,5.60
2018-12-18T03:50:02.190Z,5.50
2018-12-18T03:52:30.133Z,5.50
2018-12-18T03:54:58.020Z,5.50
2018-12-18T03:57:25.944Z,5.60
2018-12-18T03:59:53.842Z,5.60
2018-12-18T04:02:21.717Z,5.50
2018-12-18T04:04:49.660Z,5.60
2018-12-18T04:07:17.578Z,5.60
2018-12-18T04:09:45.755Z,6.00
2018-12-18T04:12:23.444Z,5.60
2018-12-18T04:14:51.788Z,5.60
2018-12-18T04:17:19.667Z,5.60
2018-12-18T04:19:47.640Z,5.60
2018-12-18T04:22:15.544Z,5.60
2018-12-18T04:24:43.396Z,5.60
2018-12-18T04:27:11.347Z,5.70
2018-12-18T04:29:39.221Z,5.60
2018-12-18T04:32:07.188Z,5.60
2018-12-18T04:34:35.107Z,5.70
2018-12-18T04:37:02.975Z,5.60
2018-12-18T04:39:30.864Z,5.70
2018-12-18T04:41:58.846Z,5.60
2018-12-18T04:44:26.707Z,5.70
2018-12-18T04:46:54.626Z,5.70
2018-12-18T04:49:22.557Z,5.70
2018-12-18T04:51:50.421Z,5.70
2018-12-18T04:54:18.296Z,5.70
2018-12-18T04:56:46.197Z,5.70
2018-12-18T04:59:14.096Z,5.70
2018-12-18T05:01:42.018Z,5.70
2018-12-18T05:04:09.901Z,5.60
2018-12-18T05:06:37.772Z,5.70
2018-12-18T05:09:08.549Z,5.60
2018-12-18T05:11:36.549Z,5.60
2018-12-18T05:14:04.590Z,5.60
2018-12-18T05:16:32.476Z,5.40
2018-12-18T05:19:00.419Z,5.60
2018-12-18T05:21:28.375Z,5.50
2018-12-18T05:23:56.264Z,5.50
2018-12-18T05:26:24.203Z,5.50
2018-12-18T05:28:52.128Z,5.50
2018-12-18T05:31:20.051Z,5.50
2018-12-18T05:33:47.937Z,5.50
2018-12-18T05:36:15.796Z,5.50
2018-12-18T05:38:43.732Z,5.50
2018-12-18T05:41:11.672Z,5.50
2018-12-18T05:43:39.542Z,5.50
2018-12-18T05:46:07.406Z,5.50
2018-12-18T05:48:35.327Z,5.50
2018-12-18T05:51:03.191Z,5.50
2018-12-18T05:53:31.158Z,5.50
2018-12-18T05:55:59.056Z,5.50
2018-12-18T05:58:26.988Z,5.60
2018-12-18T06:00:54.858Z,5.60
2018-12-18T06:03:22.788Z,5.60
2018-12-18T06:05:50.649Z,5.60
2018-12-18T06:08:18.505Z,5.60
2018-12-18T06:10:46.471Z,5.70
2018-12-18T06:13:14.346Z,5.70
2018-12-18T06:15:42.314Z,5.70
2018-12-18T06:18:10.320Z,5.70
2018-12-18T06:20:38.152Z,5.70
2018-12-18T06:23:06.055Z,5.70
2018-12-18T06:25:33.965Z,5.80
2018-12-18T06:28:01.896Z,5.80
2018-12-18T06:30:29.808Z,5.80
2018-12-18T06:32:57.709Z,5.80
2018-12-18T06:35:25.557Z,5.80
2018-12-18T06:37:53.420Z,5.80
2018-12-18T06:40:21.278Z,5.80
2018-12-18T06:42:49.187Z,5.90
2018-12-18T06:45:17.118Z,5.90
2018-12-18T06:47:45.131Z,5.90
2018-12-18T06:50:12.994Z,5.90
2018-12-18T06:52:40.884Z,5.90
2018-12-18T06:55:08.785Z,5.90
2018-12-18T06:57:36.741Z,5.90
2018-12-18T07:00:07.632Z,5.90
2018-12-18T07:02:35.501Z,5.90
2018-12-18T07:05:03.667Z,5.90
2018-12-18T07:07:31.559Z,5.90
2018-12-18T07:09:59.449Z,5.90
2018-12-18T07:12:27.365Z,5.90
2018-12-18T07:14:55.285Z,5.90
2018-12-18T07:17:23.176Z,5.90
2018-12-18T07:19:51.061Z,5.90
2018-12-18T07:22:18.938Z,5.80
2018-12-18T07:24:46.779Z,5.90
2018-12-18T07:27:14.741Z,5.90
2018-12-18T07:29:42.627Z,5.90
2018-12-18T07:32:10.493Z,5.90
2018-12-18T07:34:38.448Z,5.90
2018-12-18T07:37:06.353Z,5.90
2018-12-18T07:39:34.217Z,5.90
2018-12-18T07:42:02.174Z,5.80
2018-12-18T07:44:30.044Z,5.90
2018-12-18T07:46:58.747Z,5.80
2018-12-18T07:49:26.784Z,5.80
2018-12-18T07:51:54.777Z,5.80
2018-12-18T07:54:22.723Z,5.80
2018-12-18T07:56:50.607Z,5.80
2018-12-18T07:59:18.520Z,5.80
2018-12-18T08:01:46.458Z,5.80
2018-12-18T08:04:14.328Z,5.80
2018-12-18T08:06:42.247Z,5.80
2018-12-18T08:09:10.156Z,6.20
2018-12-18T08:11:38.101Z,5.90
2018-12-18T08:14:06.003Z,5.90
2018-12-18T08:16:33.977Z,5.90
2018-12-18T08:19:01.992Z,5.90
2018-12-18T08:21:29.913Z,5.90
2018-12-18T08:23:57.840Z,5.30
2018-12-18T08:26:25.672Z,5.90
2018-12-18T08:28:53.531Z,5.90
2018-12-18T08:31:21.442Z,5.90
2018-12-18T08:33:49.346Z,5.90
2018-12-18T08:36:17.225Z,5.90
2018-12-18T08:38:45.269Z,5.90
2018-12-18T08:41:13.223Z,5.90
2018-12-18T08:43:41.120Z,5.90
2018-12-18T08:46:10.356Z,6.00
2018-12-18T08:48:38.455Z,6.00
2018-12-18T08:51:06.401Z,6.00
2018-12-18T08:53:34.308Z,6.10
2018-12-18T08:56:02.436Z,6.10
2018-12-18T08:58:30.339Z,6.20
2018-12-18T09:00:58.252Z,6.20
2018-12-18T09:03:26.189Z,6.30
2018-12-18T09:05:54.065Z,6.30
2018-12-18T09:08:22.120Z,6.30
2018-12-18T09:10:49.972Z,6.40
2018-12-18T09:13:17.848Z,6.40
2018-12-18T09:15:51.220Z,6.50
2018-12-18T09:18:19.068Z,6.50
2018-12-18T09:20:47.004Z,6.60
2018-12-18T09:23:14.839Z,6.60
2018-12-18T09:25:42.735Z,6.60
2018-12-18T09:28:10.701Z,6.70
2018-12-18T09:30:42.499Z,6.70
2018-12-18T09:33:08.679Z,6.80
2018-12-18T09:35:36.516Z,6.80
2018-12-18T09:38:10.021Z,6.90
2018-12-18T09:40:43.676Z,6.90
2018-12-18T09:43:17.224Z,6.70
2018-12-18T09:45:45.187Z,7.10
2018-12-18T09:48:13.047Z,7.20
2018-12-18T09:50:40.951Z,7.30
2018-12-18T09:53:08.881Z,7.30
2018-12-18T09:55:36.744Z,7.50
2018-12-18T09:58:09.132Z,7.60
2018-12-18T10:00:37.023Z,7.60
2018-12-18T10:03:04.963Z,7.80
2018-12-18T10:05:32.847Z,7.80
2018-12-18T10:08:00.803Z,7.90
2018-12-18T10:10:28.663Z,7.80
2018-12-18T10:12:56.617Z,7.90
2018-12-18T10:15:25.370Z,8.00
2018-12-18T10:17:53.263Z,8.00
2018-12-18T10:20:21.208Z,8.00
2018-12-18T10:22:49.123Z,8.00
2018-12-18T10:25:17.152Z,8.00
2018-12-18T10:27:46.236Z,7.90
2018-12-18T10:30:14.321Z,7.70
2018-12-18T10:32:42.269Z,8.00
2018-12-18T10:35:10.236Z,8.00
2018-12-18T10:37:38.117Z,7.90
2018-12-18T10:40:08.365Z,8.00
2018-12-18T10:42:36.305Z,7.90
2018-12-18T10:45:06.371Z,8.00
2018-12-18T10:47:34.287Z,8.00
2018-12-18T10:50:02.194Z,8.00
2018-12-18T10:52:30.089Z,7.90
2018-12-18T10:54:58.026Z,7.80
2018-12-18T10:57:25.876Z,7.90
2018-12-18T10:59:53.756Z,7.80
2018-12-18T11:02:21.615Z,7.80
2018-12-18T11:04:49.661Z,7.70
2018-12-18T11:07:17.539Z,7.70
2018-12-18T11:09:45.397Z,7.70
2018-12-18T11:12:15.346Z,7.70
2018-12-18T11:14:43.200Z,7.60
2018-12-18T11:17:11.070Z,7.60
2018-12-18T11:19:38.909Z,7.70
2018-12-18T11:22:06.789Z,7.70
2018-12-18T11:24:34.687Z,7.70
2018-12-18T11:27:02.564Z,7.70
2018-12-18T11:29:30.430Z,7.70
2018-12-18T11:31:58.355Z,7.70
2018-12-18T11:34:26.250Z,7.70
2018-12-18T11:36:54.145Z,7.60
2018-12-18T11:39:22.487Z,7.60
2018-12-18T11:41:50.571Z,7.60
2018-12-18T11:44:18.458Z,7.60
2018-12-18T11:46:46.322Z,7.60
2018-12-18T11:49:14.231Z,7.60
2018-12-18T11:51:42.118Z,7.60
2018-12-18T11:54:10.044Z,7.60
2018-12-18T11:56:37.906Z,7.60
2018-12-18T11:59:05.806Z,7.60
2018-12-18T12:01:33.685Z,7.70
2018-12-18T12:04:01.575Z,7.70
2018-12-18T12:06:29.454Z,7.70
2018-12-18T12:08:57.395Z,7.70
2018-12-18T12:11:25.276Z,7.70
2018-12-18T12:13:53.140Z,7.70
2018-12-18T12:16:21.055Z,7.70
2018-12-18T12:18:48.957Z,7.70
2018-12-18T12:21:16.817Z,7.60
2018-12-18T12:23:44.724Z,7.60
2018-12-18T12:26:18.088Z,7.50
2018-12-18T12:28:45.971Z,7.50
2018-12-18T12:31:13.854Z,7.50
2018-12-18T12:33:41.765Z,7.50
2018-12-18T12:36:09.671Z,7.50
2018-12-18T12:38:37.504Z,7.50
2018-12-18T12:41:05.430Z,7.50
2018-12-18T12:43:33.284Z,7.50
2018-12-18T12:46:01.275Z,7.50
2018-12-18T12:48:34.755Z,7.40
2018-12-18T12:51:02.765Z,7.40
2018-12-18T12:53:30.687Z,7.30
2018-12-18T12:55:58.582Z,7.20
2018-12-18T12:58:26.452Z,7.00
2018-12-18T13:00:54.356Z,6.30
2018-12-18T13:03:22.236Z,7.00
2018-12-18T13:05:50.162Z,6.90
2018-12-18T13:08:18.052Z,6.90
2018-12-18T13:10:45.896Z,6.90
2018-12-18T13:13:13.771Z,6.80
2018-12-18T13:15:41.642Z,6.80
2018-12-18T13:18:09.520Z,6.70
2018-12-18T13:20:37.430Z,6.70
2018-12-18T13:23:05.322Z,6.70
2018-12-18T13:25:33.229Z,6.60
2018-12-18T13:28:01.130Z,6.60
2018-12-18T13:30:29.044Z,6.50
2018-12-18T13:32:56.985Z,6.50
2018-12-18T13:35:24.848Z,6.40
2018-12-18T13:37:52.736Z,6.40
2018-12-18T13:40:20.613Z,6.30
2018-12-18T13:42:48.522Z,6.30
2018-12-18T13:45:16.431Z,6.30
2018-12-18T13:47:44.315Z,6.20
2018-12-18T13:50:12.320Z,6.20
2018-12-18T13:52:40.140Z,6.20
2018-12-18T13:55:08.020Z,6.20
2018-12-18T13:57:35.929Z,6.10
2018-12-18T14:00:04.112Z,6.10
2018-12-18T14:02:32.026Z,6.10
2018-12-18T14:04:59.892Z,6.00
2018-12-18T14:07:27.858Z,6.00
2018-12-18T14:09:55.906Z,6.00
2018-12-18T14:12:23.760Z,5.90
2018-12-18T14:14:51.631Z,5.90
2018-12-18T14:17:19.559Z,5.90
2018-12-18T14:19:47.414Z,5.80
2018-12-18T14:22:15.315Z,5.80
2018-12-18T14:24:43.191Z,5.70
2018-12-18T14:27:11.102Z,5.70
2018-12-18T14:29:39.016Z,5.70
2018-12-18T14:32:06.909Z,5.60
2018-12-18T14:34:34.816Z,5.60
2018-12-18T14:37:02.721Z,5.50
2018-12-18T14:39:30.608Z,5.50
2018-12-18T14:41:58.504Z,5.50
2018-12-18T14:44:26.365Z,5.40
2018-12-18T14:46:54.384Z,5.40
2018-12-18T14:49:22.273Z,5.30
2018-12-18T14:51:50.141Z,5.30
2018-12-18T14:54:18.313Z,5.20
2018-12-18T14:56:46.248Z,5.20
2018-12-18T14:59:14.131Z,5.10
2018-12-18T15:01:42.066Z,5.00
2018-12-18T15:04:10.031Z,5.00
2018-12-18T15:06:37.900Z,4.90
2018-12-18T15:09:06.695Z,4.80
2018-12-18T15:11:34.557Z,4.70
2018-12-18T15:14:02.454Z,4.70
2018-12-18T15:16:30.384Z,4.70
2018-12-18T15:18:58.310Z,4.70
2018-12-18T15:21:26.171Z,4.60
2018-12-18T15:23:54.039Z,4.60
2018-12-18T15:26:21.887Z,4.50
2018-12-18T15:28:49.964Z,4.50
2018-12-18T15:31:17.824Z,4.40
2018-12-18T15:33:45.696Z,4.40
2018-12-18T15:39:08.579Z,4.30
2018-12-18T15:41:36.566Z,4.20
2018-12-18T15:44:05.161Z,4.20
2018-12-18T15:46:33.060Z,4.20
2018-12-18T15:49:00.910Z,4.10
2018-12-18T15:51:30.928Z,4.10
2018-12-18T15:53:58.853Z,4.10
2018-12-18T15:56:26.753Z,4.00
2018-12-18T15:58:54.695Z,4.00
2018-12-18T16:01:22.566Z,4.00
2018-12-18T16:03:50.419Z,4.00
2018-12-18T16:06:18.355Z,3.90
2018-12-18T16:08:46.256Z,3.90
2018-12-18T16:11:14.165Z,3.90
2018-12-18T16:13:42.115Z,3.90
2018-12-18T16:16:10.355Z,3.90
2018-12-18T16:18:38.296Z,3.80
2018-12-18T16:21:06.240Z,3.80
2018-12-18T16:23:34.156Z,3.70
2018-12-18T16:26:02.041Z,3.70
2018-12-18T16:28:30.007Z,3.70
2018-12-18T16:30:57.891Z,3.70
2018-12-18T16:33:25.777Z,3.70
2018-12-18T16:35:53.687Z,3.70
2018-12-18T16:38:21.568Z,3.70
2018-12-18T16:40:49.476Z,3.70
2018-12-18T16:43:17.365Z,3.80
2018-12-18T16:45:45.288Z,3.80
2018-12-18T16:48:13.174Z,3.80
2018-12-18T16:50:41.181Z,3.80
2018-12-18T16:53:09.069Z,3.80
2018-12-18T16:55:36.912Z,3.70
2018-12-18T16:58:04.932Z,3.70
2018-12-18T17:00:32.776Z,3.70
2018-12-18T17:03:00.661Z,3.70
2018-12-18T17:05:28.580Z,3.70
2018-12-18T17:07:56.460Z,3.60
2018-12-18T17:10:24.447Z,3.60
2018-12-18T17:12:55.677Z,3.60
2018-12-18T17:15:23.900Z,3.60
2018-12-18T17:17:51.845Z,3.50
2018-12-18T17:20:19.761Z,3.50
2018-12-18T17:22:47.669Z,3.50
2018-12-18T17:25:15.541Z,3.50
2018-12-18T17:27:43.481Z,3.50
2018-12-18T17:30:11.416Z,3.50
2018-12-18T17:32:39.256Z,3.50
2018-12-18T17:35:07.185Z,3.50
2018-12-18T17:37:36.320Z,3.00
2018-12-18T17:40:05.984Z,3.40
2018-12-18T17:42:33.881Z,3.30
2018-12-18T17:45:01.812Z,3.30
2018-12-18T17:47:29.764Z,3.30
2018-12-18T17:49:57.600Z,3.30
2018-12-18T17:52:25.504Z,3.20
2018-12-18T17:54:53.454Z,3.20
2018-12-18T17:57:21.321Z,3.10
2018-12-18T17:59:49.231Z,3.10
2018-12-18T18:02:17.116Z,3.00
2018-12-18T18:04:45.063Z,3.00
2018-12-18T18:07:12.947Z,3.00
2018-12-18T18:09:40.851Z,3.00
2018-12-18T18:12:08.751Z,3.00
2018-12-18T18:14:36.677Z,3.00
2018-12-18T18:17:04.639Z,3.00
2018-12-18T18:19:32.515Z,3.00
2018-12-18T18:22:00.429Z,3.00
2018-12-18T18:24:28.335Z,3.00
2018-12-18T18:26:56.287Z,3.00
2018-12-18T18:29:24.335Z,3.00
2018-12-18T18:31:52.377Z,3.00
2018-12-18T18:34:20.247Z,3.00
2018-12-18T18:36:48.142Z,3.00
2018-12-18T18:39:16.053Z,3.00
2018-12-18T18:41:44.117Z,3.00
2018-12-18T18:44:12.031Z,3.00
2018-12-18T18:46:39.904Z,3.10
2018-12-18T18:49:07.868Z,3.10
2018-12-18T18:51:49.397Z,3.10
2018-12-18T18:54:17.289Z,3.20
2018-12-18T18:56:45.249Z,3.20
2018-12-18T18:59:13.142Z,3.30
2018-12-18T19:01:41.065Z,3.30
2018-12-18T19:04:09.278Z,3.30
2018-12-18T19:06:37.404Z,3.30
2018-12-18T19:09:07.567Z,3.30
2018-12-18T19:11:35.481Z,3.40
2018-12-18T19:14:03.852Z,3.40
2018-12-18T19:16:31.768Z,3.40
2018-12-18T19:18:59.672Z,3.40
2018-12-18T19:21:27.549Z,3.40
2018-12-18T19:23:55.425Z,3.40
2018-12-18T19:26:23.444Z,3.40
2018-12-18T19:28:51.295Z,3.40
2018-12-18T19:31:19.151Z,3.40
2018-12-18T19:33:47.097Z,3.40
2018-12-18T19:36:15.021Z,3.40
2018-12-18T19:38:42.892Z,3.40
2018-12-18T19:41:10.735Z,3.40
2018-12-18T19:43:38.638Z,3.50
2018-12-18T19:46:06.513Z,3.50
2018-12-18T19:48:34.788Z,3.50
2018-12-18T19:51:02.866Z,3.50
2018-12-18T19:53:30.884Z,3.60
2018-12-18T19:55:58.775Z,3.60
2018-12-18T19:58:26.670Z,3.60
2018-12-18T20:01:01.649Z,3.60
2018-12-18T20:03:29.584Z,3.60
2018-12-18T20:05:57.557Z,3.60
2018-12-18T20:08:25.592Z,3.60
2018-12-18T20:10:53.700Z,3.70
2018-12-18T20:13:21.678Z,3.70
2018-12-18T20:15:49.639Z,3.70
2018-12-18T20:18:17.532Z,3.70
2018-12-18T20:20:50.944Z,3.70
2018-12-18T20:23:18.800Z,3.80
2018-12-18T20:25:47.047Z,3.80
2018-12-18T20:28:14.968Z,3.80
2018-12-18T20:30:42.850Z,3.80
2018-12-18T20:33:10.725Z,3.80
2018-12-18T20:35:38.658Z,3.80
2018-12-18T20:38:06.655Z,3.70
2018-12-18T20:40:34.511Z,3.70
2018-12-18T20:43:02.439Z,3.70
2018-12-18T20:45:44.480Z,3.70
2018-12-18T20:48:12.326Z,3.70
2018-12-18T20:50:40.211Z,3.60
2018-12-18T20:53:08.175Z,3.60
2018-12-18T20:55:36.068Z,3.60
2018-12-18T20:58:03.985Z,3.60
2018-12-18T21:00:31.876Z,3.60
2018-12-18T21:02:59.744Z,3.60
2018-12-18T21:05:27.720Z,3.60
2018-12-18T21:07:56.078Z,3.60
2018-12-18T21:10:24.001Z,3.60
2018-12-18T21:12:53.904Z,3.60
2018-12-18T21:15:21.939Z,3.60
2018-12-18T21:17:49.889Z,3.70
2018-12-18T21:20:17.787Z,3.60
2018-12-18T21:22:45.668Z,3.60
2018-12-18T21:25:18.911Z,3.60
2018-12-18T21:27:43.682Z,3.60
2018-12-18T21:30:17.322Z,3.60
2018-12-18T21:32:45.268Z,3.60
2018-12-18T21:35:13.180Z,3.60
2018-12-18T21:37:41.123Z,3.60
2018-12-18T21:40:09.048Z,3.60
2018-12-18T21:42:36.962Z,3.60
2018-12-18T21:45:05.883Z,3.60
2018-12-18T21:47:33.767Z,3.60
2018-12-18T21:50:01.688Z,3.60
2018-12-18T21:52:29.567Z,3.60
2018-12-18T21:54:57.477Z,3.60
2018-12-18T21:57:25.356Z,3.60
2018-12-18T21:59:53.261Z,3.60
2018-12-18T22:02:21.182Z,3.60
2018-12-18T22:04:49.357Z,3.60
2018-12-18T22:07:17.249Z,3.60
2018-12-18T22:09:45.322Z,3.60
2018-12-18T22:12:13.224Z,3.60
2018-12-18T22:14:41.228Z,3.60
2018-12-18T22:17:09.125Z,3.60
2018-12-18T22:19:37.080Z,3.60
2018-12-18T22:22:05.044Z,3.60
2018-12-18T22:24:32.977Z,3.20
2018-12-18T22:27:00.891Z,3.60
2018-12-18T22:29:28.785Z,3.60
2018-12-18T22:31:56.680Z,3.50
2018-12-18T22:34:24.616Z,3.60
2018-12-18T22:36:52.484Z,3.40
2018-12-18T22:39:20.408Z,3.40
2018-12-18T22:41:48.315Z,3.30
2018-12-18T22:44:16.220Z,3.30
2018-12-18T22:46:44.257Z,3.20
2018-12-18T22:49:12.153Z,3.20
2018-12-18T22:51:40.065Z,3.10
2018-12-18T22:54:08.011Z,3.00
2018-12-18T22:56:35.895Z,3.00
2018-12-18T22:59:03.804Z,3.00
2018-12-18T23:01:40.944Z,3.00
2018-12-18T23:04:08.814Z,3.00
2018-12-18T23:06:37.228Z,3.00
2018-12-18T23:09:09.308Z,3.00
2018-12-18T23:11:37.255Z,3.00
2018-12-18T23:14:05.129Z,3.10
2018-12-18T23:16:33.067Z,3.10
2018-12-18T23:19:00.927Z,3.10
2018-12-18T23:21:28.784Z,3.10
2018-12-18T23:23:56.673Z,3.10
2018-12-18T23:26:24.593Z,3.10
2018-12-18T23:28:52.459Z,3.10
2018-12-18T23:31:20.380Z,3.00
2018-12-18T23:33:48.300Z,3.00
2018-12-18T23:36:16.230Z,2.90
2018-12-18T23:38:44.106Z,2.90
2018-12-18T23:41:12.025Z,2.80
2018-12-18T23:43:39.898Z,2.80
2018-12-18T23:46:07.782Z,2.80
2018-12-18T23:48:39.751Z,2.90
2018-12-18T23:51:05.784Z,2.90
2018-12-18T23:53:33.694Z,3.00
2018-12-18T23:56:01.594Z,3.10
2018-12-18T23:58:29.463Z,3.10
